Lionhead Wind

Lionhead weather stationLocated on Lionhead Ridge near West Yellowstone. Use the nearest SNOTEL station for snow depth data: Madison Plateau. The data on this page is also available to view at dataGarrison.com.

Elevation
8775ft
Jump to table bottom
Date Time Temperature
deg F
RH, % Wind Speed Wind Gust Wind Direction
04/03/22 10:08 22.9 50 7 10 SW - 226
04/03/22 09:08 21.1 42 3 8 W - 253
04/03/22 08:08 22.0 46 5 12 W - 272
04/03/22 07:08 15.7 56 4 10 SW - 220
04/03/22 06:08 14.1 61 7 12 NE - 52
04/03/22 05:08 12.7 56 7 31 NE - 31
04/03/22 04:08 14.2 64 8 27 W - 285
04/03/22 03:08 13.6 67 6 24 N - 355
04/03/22 02:08 13.9 72 5 30 NW - 320
04/03/22 01:08 14.2 69 9 38 NW - 307
04/03/22 00:08 15.6 68 11 36 NW - 295
04/02/22 23:08 15.9 67 8 27 NW - 306
04/02/22 22:08 16.7 61 7 32 NW - 334
04/02/22 21:08 18.0 59 9 36 NW - 329
04/02/22 20:08 19.4 58 5 43 NE - 34
04/02/22 19:08 22.0 50 11 50 W - 282
04/02/22 18:08 24.9 50 19 53 W - 272
04/02/22 17:08 28.0 84 10 45 NW - 298
04/02/22 16:08 27.0 91 7 40 NE - 31
04/02/22 15:08 26.6 65 26 61 SW - 244
04/02/22 14:08 29.7 64 40 63 SW - 247
04/02/22 13:08 27.8 65 28 58 SW - 223
04/02/22 12:08 27.2 65 23 34 SW - 219
04/02/22 11:08 26.1 65 22 32 SW - 237
04/02/22 10:08 26.1 68 24 40 SW - 244
04/02/22 09:08 24.7 71 25 37 W - 251
04/02/22 08:08 22.0 75 20 29 SW - 241
04/02/22 07:08 20.8 77 21 30 SW - 246
04/02/22 06:08 19.3 77 21 29 SW - 247
04/02/22 05:08 19.5 75 24 33 SW - 243
04/02/22 04:08 19.8 67 20 31 SW - 241
04/02/22 03:08 20.0 65 20 28 SW - 244
04/02/22 02:08 19.9 71 20 31 W - 248
04/02/22 01:08 19.4 75 14 19 W - 251
04/02/22 00:08 19.6 75 16 23 SW - 227
04/01/22 23:08 19.6 78 18 26 SW - 240
04/01/22 22:08 19.9 78 18 25 SW - 240
04/01/22 21:08 19.9 77 14 20 SW - 229
04/01/22 20:08 21.0 71 16 25 SW - 227
04/01/22 19:08 21.1 67 18 26 SW - 240
04/01/22 18:08 23.7 60 18 28 SW - 240
04/01/22 17:08 26.2 57 17 29 W - 256
04/01/22 16:08 25.3 59 17 27 SW - 243
04/01/22 15:08 24.7 64 18 31 SW - 237
04/01/22 14:08 22.1 69 19 30 SW - 222
04/01/22 13:08 21.2 59 16 31 W - 263
04/01/22 12:08 21.9 58 18 34 W - 264
04/01/22 11:08 19.4 59 14 34 W - 272
04/01/22 10:08 16.6 57 17 36 W - 271
04/01/22 09:08 18.2 60 12 25 W - 277